Joseph Richard

Chief Scout - RC Lens
25 Jun 2028
Sunday
Process

Personality

Adaptability (12) Ambition (18) Controversy (20) Loyalty (4) Pressure (15) Professionalism (6) Sportsmanship (1) Temperament (15)

Profile

Coaching Style Democratic
License Continental A
Determination 12
Man Management 6
Motivating 13
Discipline 5
Job Satisfaction
100%
Fatigue
0%
Role Chief Scout
Wage 97.2K p/w
Contract 14.03.2030

Performance

Behaviour Good
Training Effectiveness
50%
Player Development
45%
Injury Prevention
25%
Tactical Implementation
40%

Recent Events

Attended a recruitment meeting now
Attended a recruitment meeting now
Recommended a transfer target now
Recommended a transfer target now
Recommended a transfer target now
Recommended a transfer target now
Recommended a transfer target 7d ago
Recommended a transfer target 7d ago

Currently Monitoring

218
Player Club Status Ability Confidence Watched Last Observed Latest Vote
Jonathan Rodríguez Valenciennes Negotiating 122 / 120 83% 1 19.06.2028 -
Kiani Inge Groningen Active 111 / 119 40% 5 03.06.2028 -
Andrija Bulatović Chamois Niortais Active 130 / 134 40% 2 03.06.2028 -
Mouez Hassen Red Star Lost 109 / 111 83% 1 03.06.2028 -
Alani Maritimo Active 110 / 117 40% 3 29.05.2028 -
Lucas Høgsberg RC Strasbourg Active 147 / 144 40% 5 29.05.2028 -
Andrey Ivlev Nizhniy Novgorod Active 109 / 115 40% 4 28.05.2028 -
Giovanni Leoni Lincoln City Active 143 / 145 40% 5 28.05.2028 -
Josh King Newcastle United Active 144 / 150 40% 6 28.05.2028 -
Khalis Merah Olympique Lyonnais Active 131 / 138 40% 5 27.05.2028 -
Miguel Figueiredo Benfica Active 121 / 131 40% 3 27.05.2028 -
Celías Ingenthron Platense Active 113 / 128 40% 4 27.05.2028 -
Daniel Banjaqui Benfica Active 122 / 128 40% 6 26.05.2028 -
Thijs Kraaijeveld USM Alger Active 123 / 129 40% 3 26.05.2028 -
Jason Witsel PSV Active 123 / 129 40% 4 25.05.2028 -
Jan Bürger Northampton Town Active 118 / 125 40% 8 25.05.2028 -
Josh Nichols Oldham Athletic Active 120 / 126 40% 8 23.05.2028 -
Christos Mouzakitis Hull City Active 134 / 142 40% 12 23.05.2028 -
Thato Sibiya Orlando Pirates Active 116 / 123 40% 2 23.05.2028 -
Jorthy Mokio ADO Den Haag Active 132 / 138 40% 5 22.05.2028 -
Itumeleng Jali Spezia Active 119 / 122 40% 5 20.05.2028 -
Bernardo Lima Porto Active 106 / 116 40% 6 18.05.2028 -
Adnan Nainggolan KV Oostende Active 101 / 113 40% 8 16.05.2028 -
Ayden Heaven Portsmouth Active 146 / 152 40% 4 16.05.2028 -
Nathan De Cat SC Freiburg Active 129 / 139 40% 2 12.05.2028 -
Riquelme Thompson-Jones Accrington Stanley Active 109 / 115 40% 4 12.05.2028 -
Trey Nyoni Rotherham United Active 136 / 146 40% 6 09.05.2028 -
Honest Ahanor Atalanta Active 136 / 140 40% 4 09.05.2028 -
Dmitry Pestryakov Krasnodar Active 119 / 121 40% 4 05.05.2028 -
Tobías Ramírez River Plate Active 130 / 130 40% 2 05.05.2028 -
Tyler Fletcher Rotherham United Active 110 / 119 40% 4 29.04.2028 -
Josh Acheampong Everton Active 145 / 147 40% 3 27.04.2028 -
Martim Cunha Porto Active 106 / 112 40% 3 21.04.2028 -
Tylel Tati Chamois Niortais Active 130 / 135 40% 2 21.04.2028 -
Olivier Leroux Mouscron Active 101 / 108 40% 1 15.04.2028 -
Victor Hernandez Santa Fe Active 124 / 129 40% 1 03.04.2028 -
Augusto Bando Ascoli Active 108 / 115 40% 2 02.04.2028 -
Thulani Manyama SuperSport United Active 112 / 117 40% 3 31.03.2028 -
David Blanc Le Havre AC Active 105 / 117 40% 1 31.03.2028 -
Kauã Moraes Flamengo Active 132 / 130 40% 2 28.03.2028 -
Matvey Bardachev Zenit Active 103 / 111 40% 1 26.03.2028 -
Vinícius Lira São Paulo Active 112 / 128 40% 2 21.03.2028 -
Thiago Silvero Vélez Active 128 / 129 40% 1 20.03.2028 -
Amine Boukamir Charleroi Active 106 / 112 40% 1 07.03.2028 -
Martin Jedlička Banik Ostrava Active 128 / 132 40% 1 10.01.2028 -
Santiago Silva Lech Active 135 / 127 40% 1 10.01.2028 -
Mao Hosoya Santos Active 134 / 135 67% 1 01.01.2028 Approve
Jesus Ferreira Seattle Sounders Active 128 / 125 40% 2 31.12.2027 -
Iliman N'Diaye Everton Active 164 / 160 40% 13 31.12.2027 -
Benjamín Rollheiser Santos Active 132 / 135 40% 1 31.12.2027 -
Loïs Openda Juventus Active 157 / 155 40% 6 29.12.2027 -
Evanilson Southampton Active 154 / 153 40% 8 29.12.2027 -
Martín Ojeda Orlando City Active 132 / 129 40% 8 29.12.2027 -
Mohamed-Ali Cho Hull City Active 141 / 144 40% 7 28.12.2027 -
Ismaïla Sarr Crystal Palace Active 154 / 150 40% 10 28.12.2027 -
Hamza Igamane LOSC Lille Active 153 / 150 40% 3 27.12.2027 -
Thiago Brentford Active 153 / 150 40% 8 25.12.2027 -
Juan Brunetta Chicago Fire Active 148 / 141 40% 6 25.12.2027 -
José Manuel López Palmeiras Active 139 / 140 40% 5 23.12.2027 -
Petar Musa FC Dallas Active 139 / 136 40% 7 23.12.2027 -
Manfred Ugalde Spartak Moscow Active 138 / 139 40% 3 23.12.2027 -
Georginio Rutter Brighton Active 158 / 151 40% 13 22.12.2027 -
Eddie Nketiah Crystal Palace Active 148 / 145 40% 7 22.12.2027 -
Tammy Abraham Aston Villa Active 146 / 144 40% 7 22.12.2027 -
Youssef En-Nesyri Padideh Active 148 / 141 40% 3 20.12.2027 -
Germán Berterame Inter Miami CF Active 137 / 140 40% 9 19.12.2027 -
Liel Abada Inter Miami CF Active 141 / 139 40% 8 19.12.2027 -
Dango Ouattara Leicester City Active 150 / 150 40% 5 16.12.2027 -
Nicolas Jackson Aston Villa Active 155 / 151 40% 9 13.12.2027 -
Pedro Flamengo Active 138 / 142 40% 9 13.12.2027 -
Kevin Schade Chelsea Active 157 / 156 40% 5 09.12.2027 -
Dwight McNeil Crystal Palace Active 142 / 142 40% 2 06.12.2027 -
Rodrigo Muniz Fulham Active 142 / 143 40% 7 03.12.2027 -
Morgan Whittaker Bristol Rovers Active 141 / 137 40% 3 03.12.2027 -
Brennan Johnson Middlesbrough Active 154 / 152 40% 6 01.12.2027 -
João Pedro Chelsea Active 159 / 156 40% 12 29.11.2027 -
Musa Barrow ES Setif Active 143 / 138 40% 1 29.11.2027 -
Morgan Rogers Chelsea Active 160 / 162 40% 3 18.11.2027 -
Gonzalo Fulham Active 154 / 150 40% 8 17.11.2027 -
Evann Guessand Aston Villa Active 153 / 153 40% 4 16.11.2027 -
Nicolás González Juventus Active 159 / 158 40% 3 16.11.2027 -
Dominic Solanke Tottenham Active 153 / 152 40% 6 14.11.2027 -
Taiwo Awoniyi Middlesbrough Active 145 / 145 40% 1 11.11.2027 -
Eduardo Lozano Botafogo Active 139 / 143 40% 4 08.11.2027 -
Boulaye Dia Lazio Active 142 / 145 40% 2 05.11.2027 -
Roberto Fernández Braga Active 150 / 143 40% 13 27.10.2027 -
Ansu Fati Monaco Active 145 / 142 40% 4 27.10.2027 -
Lautaro Martínez Inter Active 173 / 171 40% 13 26.10.2027 -
Luis Suárez Sporting CP Active 159 / 156 40% 5 25.10.2027 -
Yassir Zabiri Stade Rennais Active 137 / 138 40% 5 17.10.2027 -
Cody Gakpo Liverpool Active 161 / 166 40% 8 12.10.2027 -
Taty Castellanos West Ham United Active 151 / 154 40% 11 30.09.2027 -
Fábio Carvalho Brentford Active 142 / 149 40% 2 26.09.2027 -
Jarrod Bowen West Ham United Active 160 / 155 40% 5 22.09.2027 -
Amine Gouiri Olympique de Marseille Active 143 / 150 40% 3 20.09.2027 -
Esteban Lepaul Stade Rennais Active 146 / 140 40% 8 19.09.2027 -
Joshua Zirkzee Manchester United Active 148 / 150 40% 3 19.09.2027 -
Wilson Isidor Sunderland Active 137 / 145 40% 3 17.09.2027 -
Zeki Amdouni Luton Town Active 142 / 134 40% 1 15.09.2027 -
Ahmad Ngouyamsa US Creteil Active 109 / 116 79% 1 05.07.2027 Approve
Yann Gboho Toulouse FC Active 132 / 140 79% 1 28.06.2027 Approve
Yehor Yarmoliuk Brentford Active 145 / 147 40% 5 02.06.2027 -
Chemsdine Talbi Sunderland Active 142 / 145 40% 5 02.06.2027 -
Mario Stroeykens Anderlecht Active 132 / 134 40% 1 02.06.2027 -
Xavi Simons Tottenham Active 157 / 154 40% 3 01.06.2027 -
Erick Sánchez RC Lens Active 139 / 139 68% 1 01.06.2027 Approve
Kwadwo Baah Watford Active 132 / 126 40% 1 01.06.2027 -
Giacomo Raspadori Atalanta Active 150 / 148 40% 4 31.05.2027 -
Carlos Forbs Club Brugge Active 138 / 137 40% 6 31.05.2027 -
Emanuel Emegha Chelsea Active 142 / 143 40% 2 30.05.2027 -
Nicolò Zaniolo Udinese Active 142 / 146 40% 5 30.05.2027 -
Óscar Mingueza Crystal Palace Active 155 / 148 40% 5 30.05.2027 -
Manu Koné AS Roma Active 167 / 164 40% 8 27.05.2027 -
Carlos Vicente Birmingham Active 142 / 139 40% 5 27.05.2027 -
Sofiane Diop OGC Nice Active 146 / 150 40% 7 24.05.2027 -
Jack Rudoni Coventry City Active 135 / 137 40% 1 21.05.2027 -
Savinho Tottenham Active 159 / 158 40% 5 20.05.2027 -
Ludovic Blas Stade Rennais Active 142 / 141 40% 7 19.05.2027 -
Osame Sahraoui LOSC Lille Active 145 / 140 40% 6 19.05.2027 -
Kevin Fulham Active 154 / 154 40% 6 16.05.2027 -
Hákon Arnar Haraldsson LOSC Lille Active 149 / 152 40% 6 16.05.2027 -
Jørgen Strand Larsen Brighton Active 146 / 148 40% 4 16.05.2027 -
James Garner Everton Active 148 / 145 40% 3 15.05.2027 -
Tiago Santos LOSC Lille Active 142 / 147 40% 4 15.05.2027 -
Tino Livramento Newcastle United Active 154 / 158 40% 4 12.05.2027 -
Yeremy Pino Crystal Palace Active 155 / 147 40% 3 12.05.2027 -
Jan Paul van Hecke Tottenham Active 155 / 154 40% 1 12.05.2027 -
Tristan Degreef Anderlecht Active 128 / 133 40% 1 12.05.2027 -
Aimé Omgba KAA Gent Active 128 / 125 40% 1 07.05.2027 -
Joe Gelhardt Hull City Active 134 / 132 40% 1 01.05.2027 -
James Maddison Tottenham Active 160 / 155 40% 2 30.04.2027 -
Pau Víctor Braga Active 140 / 134 40% 7 27.04.2027 -
Gianluca Scamacca Atalanta Active 151 / 149 40% 4 27.04.2027 -
Boubacar Kamara Aston Villa Active 163 / 161 40% 5 24.04.2027 -
Moisés Caicedo Chelsea Active 168 / 169 40% 5 22.04.2027 -
Harry Wilson Leeds United Active 146 / 148 40% 1 21.04.2027 -
Ilay Camara Anderlecht Active 129 / 126 40% 4 15.04.2027 -
Marcus Edwards Burnley Active 143 / 134 40% 2 12.04.2027 -
Amadou Onana Aston Villa Active 159 / 161 40% 4 03.04.2027 -
Christian Pulisic AC Milan Active 165 / 163 40% 4 02.04.2027 -
Vanderson Monaco Active 148 / 135 40% 3 01.04.2027 -
Mats Wieffer Brighton Active 147 / 149 40% 3 01.04.2027 -
Florentino Luís Ipswich Town Active 138 / 140 40% 2 01.04.2027 -
Pedro Porro Tottenham Active 148 / 154 40% 1 25.03.2027 -
Ilan Kebbal Paris FC Active 132 / 142 40% 1 19.03.2027 -
Nordi Mukiele Sunderland Active 143 / 138 40% 1 18.03.2027 -
Manor Solomon West Ham United Active 139 / 135 40% 2 15.03.2027 -
Bradley Locko Stade Brestois Active 132 / 132 40% 1 11.03.2027 -
Agustín Palavecino Cruz Azul Active 133 / 144 40% 1 05.03.2027 -
Levi Colwill Chelsea Active 161 / 159 40% 4 28.02.2027 -
Jake O'Brien Everton Active 143 / 147 40% 2 28.02.2027 -
Cristian Uribe Monaco Active 147 / 148 40% 2 28.02.2027 -
Raoul Bellanova Atalanta Active 147 / 148 40% 2 25.02.2027 -
Tyler Morton Olympique Lyonnais Active 146 / 137 40% 3 24.02.2027 -
Juanlu Bournemouth Active 144 / 152 40% 2 22.02.2027 -
Lewis Hall Newcastle United Active 147 / 147 40% 2 22.02.2027 -
Sven Botman Newcastle United Active 159 / 159 40% 3 21.02.2027 -
Sandro Tonali Tottenham Active 171 / 170 40% 1 20.02.2027 -
Ian Maatsen Aston Villa Active 156 / 156 40% 1 15.02.2027 -
Aaron Hickey Brentford Active 141 / 138 40% 2 14.02.2027 -
Jarrad Branthwaite Everton Active 152 / 151 40% 1 13.02.2027 -
Alexsandro Ribeiro LOSC Lille Active 144 / 154 40% 2 08.02.2027 -
Lamine Camara Monaco Active 134 / 140 40% 1 07.02.2027 -
Curtis Jones Inter Active 156 / 156 40% 1 05.02.2027 -
André Wolverhampton Active 140 / 140 40% 2 03.02.2027 -
Alex Scott Bournemouth Active 153 / 154 40% 1 03.02.2027 -
Diego Coppola Paris FC Active 137 / 146 40% 1 05.01.2027 -
Quinten Timber Crystal Palace Active 151 / 147 40% 1 04.01.2027 -
Jacob Greaves Ipswich Town Active 136 / 129 40% 1 04.01.2027 -
Chukwubuikem Ikwuemesi OH Leuven Active 122 / 112 40% 6 02.01.2027 -
Nicolò Tresoldi Club Brugge Active 137 / 134 40% 3 02.01.2027 -
Murphy Cooper Plymouth Argyle Active 110 / 107 40% 3 30.12.2026 -
George Wickens Lincoln City Active 117 / 112 40% 2 30.12.2026 -
Yehvann Diouf OGC Nice Active 134 / 136 40% 4 23.12.2026 -
Lucas Lund Viborg Active 125 / 106 40% 1 20.12.2026 -
Federico Chiesa Liverpool Active 152 / 154 40% 4 18.12.2026 -
Josh Keeley Luton Town Active 120 / 115 40% 2 14.12.2026 -
Jonathan Fischer FC Metz Active 136 / 134 40% 3 10.12.2026 -
Raúl Rangel Braga Active 136 / 129 40% 2 10.12.2026 -
Robin Roefs Sunderland Active 144 / 149 40% 1 10.12.2026 -
James Trafford Leeds United Active 147 / 146 40% 7 26.11.2026 -
Stefan Bajić AC Ajaccio Active 111 / 117 40% 1 26.11.2026 -
Matvey Safonov Paris Saint-Germain Active 158 / 153 40% 3 25.11.2026 -
Ousmane Dembélé Paris Saint-Germain Active 184 / 178 40% 2 24.11.2026 -
Igor Paixão Olympique de Marseille Active 149 / 154 40% 2 15.11.2026 Needs More Info
Anthony Patterson Wrexham Active 129 / 134 40% 4 14.11.2026 -
Radek Vítek Middlesbrough Active 127 / 129 40% 5 12.11.2026 -
Nathan Trott Cardiff City Active 125 / 120 40% 2 31.10.2026 -
Nicolás Sumavil Platense Active 124 / 123 40% 1 30.10.2026 -
Mauro Silveira Junior Active 121 / 110 40% 2 29.10.2026 -
Zion Suzuki Aston Villa Active 136 / 138 40% 5 28.10.2026 -
Patrick Schulte Columbus Crew Active 114 / 120 40% 2 27.10.2026 -
Leo Kokubo Sint-Truiden Active 117 / 109 40% 3 24.10.2026 -
Luis Ingolotti Atlético Tucumán Active 124 / 112 40% 2 23.10.2026 -
Berke Özer LOSC Lille Active 131 / 143 40% 3 22.10.2026 -
Brent Gabriel Zulte Waregem Active 119 / 116 40% 2 18.10.2026 -
Andreas Jungdal Westerlo Active 123 / 117 40% 2 17.10.2026 -
Mads Hermansen West Ham United Active 141 / 141 40% 1 16.10.2026 -
Keisuke Osako Sanfrecce Hiroshima Active 135 / 149 40% 1 09.10.2026 -
Joseph Leclercq Tottenham Active 149 / 155 40% 3 08.10.2026 -
Rafiu Durosinmi Racing Genk Active 129 / 137 40% 2 03.10.2026 -
Adriano Bertaccini Anderlecht Active 128 / 113 40% 1 03.10.2026 -
Wessam Abou Ali Columbus Crew Active 125 / 140 40% 3 02.10.2026 -
Bénie Traoré New York City Active 118 / 110 40% 1 27.09.2026 -
Ryotaro Araki Sint-Truiden Active 114 / 114 40% 3 26.09.2026 -
Kévin Denkey FC Cincinnati Active 126 / 126 40% 1 26.09.2026 -
Talles Magno New York City Active 131 / 138 40% 1 25.09.2026 -
Isa Sakamoto Westerlo Active 113 / 116 40% 1 17.09.2026 -
Tobias Lawal Twente Active 121 / 119 40% 1 16.09.2026 -
Ramiro Ruiz Rodríguez Atlético Tucumán Active 111 / 135 40% 1 14.09.2026 -
Alejandro Piedrahita Deportivo Pereira Active 128 / 130 40% 1 12.09.2026 -
Tadeo Allende Inter Miami CF Active 130 / 133 40% 1 11.09.2026 -
Bruno Larregui Juventud Active 124 / 123 40% 1 09.09.2026 -
Pathé Mboup Stade Brestois Active 114 / 121 76% 1 17.08.2026 Approve
Achraf Hakimi Paris Saint-Germain Active 175 / 175 40% 1 17.08.2026 -
Noah Okafor Leeds United Active 134 / 145 40% 1 04.08.2026 -
Matheus Nunes Manchester City Active 161 / 162 40% 1 01.08.2026 -
Miloš Kerkez Liverpool Active 152 / 146 40% 1 01.08.2026 -